sensor_id;sensor_type;location;lat;lon;timestamp;temperature;humidity
1888;DHT22;944;51.574;6.980;2023-12-20T00:00:00;7.10;99.90
1888;DHT22;944;51.574;6.980;2023-12-20T00:10:05;7.00;99.90
1888;DHT22;944;51.574;6.980;2023-12-20T00:12:39;6.90;99.90
1888;DHT22;944;51.574;6.980;2023-12-20T00:18:56;6.90;99.90
1888;DHT22;944;51.574;6.980;2023-12-20T00:21:45;6.80;99.90
1888;DHT22;944;51.574;6.980;2023-12-20T00:27:33;6.80;99.90
1888;DHT22;944;51.574;6.980;2023-12-20T00:30:05;6.50;99.90
1888;DHT22;944;51.574;6.980;2023-12-20T00:33:00;6.50;99.90
1888;DHT22;944;51.574;6.980;2023-12-20T00:35:34;6.50;99.90
1888;DHT22;944;51.574;6.980;2023-12-20T00:42:04;6.50;99.90
1888;DHT22;944;51.574;6.980;2023-12-20T00:44:37;6.50;99.90
1888;DHT22;944;51.574;6.980;2023-12-20T00:47:25;6.60;99.90
1888;DHT22;944;51.574;6.980;2023-12-20T00:50:13;6.60;99.90
1888;DHT22;944;51.574;6.980;2023-12-20T00:52:50;6.60;99.90
1888;DHT22;944;51.574;6.980;2023-12-20T00:59:00;6.70;99.90
1888;DHT22;944;51.574;6.980;2023-12-20T01:01:40;6.80;99.90
1888;DHT22;944;51.574;6.980;2023-12-20T01:04:11;6.60;99.90
1888;DHT22;944;51.574;6.980;2023-12-20T01:06:56;6.60;99.90
1888;DHT22;944;51.574;6.980;2023-12-20T09:12:42;6.70;99.90
1888;DHT22;944;51.574;6.980;2023-12-20T10:46:52;7.20;99.90
1888;DHT22;944;51.574;6.980;2023-12-20T13:50:50;7.40;99.90
1888;DHT22;944;51.574;6.980;2023-12-20T13:53:22;7.40;99.90
1888;DHT22;944;51.574;6.980;2023-12-20T14:02:18;7.50;99.90
1888;DHT22;944;51.574;6.980;2023-12-20T14:05:39;7.40;99.90
1888;DHT22;944;51.574;6.980;2023-12-20T14:08:21;7.50;99.90
1888;DHT22;944;51.574;6.980;2023-12-20T14:10:57;7.40;99.90
1888;DHT22;944;51.574;6.980;2023-12-20T14:13:29;7.40;99.90
1888;DHT22;944;51.574;6.980;2023-12-20T14:16:05;7.40;99.90
1888;DHT22;944;51.574;6.980;2023-12-20T14:18:32;7.40;99.90
1888;DHT22;944;51.574;6.980;2023-12-20T14:21:03;7.40;99.90
1888;DHT22;944;51.574;6.980;2023-12-20T14:27:12;7.30;99.90
1888;DHT22;944;51.574;6.980;2023-12-20T14:33:29;7.30;99.90
1888;DHT22;944;51.574;6.980;2023-12-20T14:36:07;7.30;99.90
1888;DHT22;944;51.574;6.980;2023-12-20T14:38:41;7.30;99.90
1888;DHT22;944;51.574;6.980;2023-12-20T14:41:09;7.30;99.90
1888;DHT22;944;51.574;6.980;2023-12-20T14:43:39;7.30;99.90
1888;DHT22;944;51.574;6.980;2023-12-20T14:46:06;7.30;99.90
1888;DHT22;944;51.574;6.980;2023-12-20T14:48:41;7.30;99.90
1888;DHT22;944;51.574;6.980;2023-12-20T14:51:19;7.30;99.90
1888;DHT22;944;51.574;6.980;2023-12-20T14:53:51;7.40;99.90
1888;DHT22;944;51.574;6.980;2023-12-20T14:56:57;7.40;99.90
1888;DHT22;944;51.574;6.980;2023-12-20T15:03:06;7.40;99.90
1888;DHT22;944;51.574;6.980;2023-12-20T15:05:57;7.40;99.90
1888;DHT22;944;51.574;6.980;2023-12-20T15:08:32;7.30;99.90
1888;DHT22;944;51.574;6.980;2023-12-20T15:10:59;7.30;99.90
1888;DHT22;944;51.574;6.980;2023-12-20T15:13:28;7.30;99.90
1888;DHT22;944;51.574;6.980;2023-12-20T15:15:56;7.30;99.90
1888;DHT22;944;51.574;6.980;2023-12-20T15:18:40;7.30;99.90
1888;DHT22;944;51.574;6.980;2023-12-20T15:21:20;7.30;99.90
1888;DHT22;944;51.574;6.980;2023-12-20T15:24:00;7.30;99.90
1888;DHT22;944;51.574;6.980;2023-12-20T15:26:52;7.30;99.90
1888;DHT22;944;51.574;6.980;2023-12-20T15:33:22;7.50;99.90
1888;DHT22;944;51.574;6.980;2023-12-20T15:54:11;7.40;99.90
1888;DHT22;944;51.574;6.980;2023-12-20T16:18:56;7.50;99.90
1888;DHT22;944;51.574;6.980;2023-12-20T16:21:27;7.50;99.90
1888;DHT22;944;51.574;6.980;2023-12-20T16:27:38;7.60;99.90
1888;DHT22;944;51.574;6.980;2023-12-20T16:30:06;7.50;99.90
1888;DHT22;944;51.574;6.980;2023-12-20T16:32:37;7.60;99.90
1888;DHT22;944;51.574;6.980;2023-12-20T16:35:09;7.60;99.90
1888;DHT22;944;51.574;6.980;2023-12-20T16:37:36;7.60;99.90
1888;DHT22;944;51.574;6.980;2023-12-20T16:40:10;7.60;99.90
1888;DHT22;944;51.574;6.980;2023-12-20T16:42:54;7.60;99.90
1888;DHT22;944;51.574;6.980;2023-12-20T16:50:57;7.50;99.90
1888;DHT22;944;51.574;6.980;2023-12-20T16:53:29;7.40;99.90
